createdAt,value
2018-09-26T00:00:17.441Z,100788.00
2018-09-26T00:02:52.523Z,100794.00
2018-09-26T00:05:22.201Z,100786.00
2018-09-26T00:07:51.741Z,100782.00
2018-09-26T00:10:21.221Z,100785.00
2018-09-26T00:12:51.422Z,100786.00
2018-09-26T00:15:20.861Z,100787.00
2018-09-26T00:17:50.423Z,100781.00
2018-09-26T00:20:19.903Z,100783.00
2018-09-26T00:22:49.401Z,100778.00
2018-09-26T00:25:18.930Z,100771.00
2018-09-26T00:27:48.841Z,100762.00
2018-09-26T00:30:18.301Z,100769.00
2018-09-26T00:32:47.969Z,100767.00
2018-09-26T00:35:17.440Z,100755.00
2018-09-26T00:37:47.119Z,100770.00
2018-09-26T00:40:16.761Z,100759.00
2018-09-26T00:42:46.601Z,100755.00
2018-09-26T00:45:16.196Z,100753.00
2018-09-26T00:47:45.722Z,100748.00
2018-09-26T00:50:15.361Z,100758.00
2018-09-26T00:52:45.062Z,100754.00
2018-09-26T00:55:14.722Z,100763.00
2018-09-26T00:57:44.322Z,100758.00
2018-09-26T01:00:13.921Z,100751.00
2018-09-26T01:02:43.521Z,100750.00
2018-09-26T01:05:13.341Z,100750.00
2018-09-26T01:07:42.962Z,100736.00
2018-09-26T01:10:12.581Z,100730.00
2018-09-26T01:12:42.142Z,100720.00
2018-09-26T01:15:11.681Z,100715.00
2018-09-26T01:17:41.541Z,100722.00
2018-09-26T01:20:11.040Z,100715.00
2018-09-26T01:22:40.582Z,100732.00
2018-09-26T01:25:10.282Z,100727.00
2018-09-26T01:27:39.942Z,100723.00
2018-09-26T01:30:09.642Z,100723.00
2018-09-26T01:32:39.326Z,100710.00
2018-09-26T01:35:08.941Z,100699.00
2018-09-26T01:37:38.541Z,100693.00
2018-09-26T01:40:08.202Z,100700.00
2018-09-26T01:42:37.722Z,100688.00
2018-09-26T01:45:07.341Z,100692.00
2018-09-26T01:47:36.701Z,100696.00
2018-09-26T01:50:06.704Z,100697.00
2018-09-26T01:52:36.262Z,100678.00
2018-09-26T01:55:05.903Z,100674.00
2018-09-26T01:57:35.421Z,100676.00
2018-09-26T02:00:05.361Z,100662.00
2018-09-26T02:02:35.262Z,100643.00
2018-09-26T02:05:05.002Z,100644.00
2018-09-26T02:07:34.500Z,100641.00
2018-09-26T02:10:04.562Z,100632.00
2018-09-26T02:12:34.141Z,100630.00
2018-09-26T02:15:03.782Z,100629.00
2018-09-26T02:17:33.241Z,100620.00
2018-09-26T02:20:02.822Z,100617.00
2018-09-26T02:22:32.343Z,100608.00
2018-09-26T02:25:02.343Z,100629.00
2018-09-26T02:27:31.801Z,100628.00
2018-09-26T02:30:01.344Z,100623.00
2018-09-26T02:32:30.821Z,100615.00
2018-09-26T02:35:00.361Z,100615.00
2018-09-26T02:37:29.861Z,100609.00
2018-09-26T02:39:59.441Z,100616.00
2018-09-26T02:42:29.042Z,100609.00
2018-09-26T02:44:58.582Z,100610.00
2018-09-26T02:47:28.197Z,100606.00
2018-09-26T02:49:58.242Z,100610.00
2018-09-26T02:52:27.737Z,100610.00
2018-09-26T02:54:57.822Z,100602.00
2018-09-26T02:57:27.441Z,100611.00
2018-09-26T02:59:56.986Z,100614.00
2018-09-26T03:02:26.656Z,100621.00
2018-09-26T03:04:56.202Z,100620.00
2018-09-26T03:07:25.722Z,100624.00
2018-09-26T03:09:55.162Z,100625.00
2018-09-26T03:12:24.663Z,100631.00
2018-09-26T03:14:54.202Z,100623.00
2018-09-26T03:17:23.898Z,100621.00
2018-09-26T03:19:53.303Z,100612.00
2018-09-26T03:22:22.923Z,100613.00
2018-09-26T03:24:52.562Z,100611.00
2018-09-26T03:27:22.060Z,100620.00
2018-09-26T03:29:51.584Z,100622.00
2018-09-26T03:32:21.062Z,100632.00
2018-09-26T03:34:50.642Z,100638.00
2018-09-26T03:37:20.262Z,100633.00
2018-09-26T03:39:49.842Z,100625.00
2018-09-26T03:42:19.442Z,100637.00
2018-09-26T03:44:48.962Z,100629.00
2018-09-26T03:47:18.443Z,100620.00
2018-09-26T03:49:48.339Z,100623.00
2018-09-26T03:52:17.922Z,100619.00
2018-09-26T03:54:48.022Z,100606.00
2018-09-26T03:57:17.922Z,100612.00
2018-09-26T03:59:47.366Z,100613.00
2018-09-26T04:02:17.009Z,100600.00
2018-09-26T04:04:46.537Z,100611.00
2018-09-26T04:07:16.002Z,100611.00
2018-09-26T04:09:45.463Z,100608.00
2018-09-26T04:12:15.003Z,100616.00
2018-09-26T04:14:44.582Z,100617.00
2018-09-26T04:17:14.329Z,100610.00
2018-09-26T04:19:43.882Z,100616.00
2018-09-26T04:22:13.563Z,100601.00
2018-09-26T04:24:43.184Z,100608.00
2018-09-26T04:27:13.021Z,100603.00
2018-09-26T04:29:42.628Z,100586.00
2018-09-26T04:32:12.282Z,100583.00
2018-09-26T04:34:41.843Z,100579.00
2018-09-26T04:37:11.579Z,100581.00
2018-09-26T04:39:41.063Z,100579.00
2018-09-26T04:42:10.633Z,100570.00
2018-09-26T04:44:40.203Z,100561.00
2018-09-26T04:47:09.743Z,100560.00
2018-09-26T04:49:39.302Z,100555.00
2018-09-26T04:52:08.903Z,100560.00
2018-09-26T04:54:38.582Z,100574.00
2018-09-26T04:57:08.324Z,100575.00
2018-09-26T04:59:37.962Z,100576.00
2018-09-26T05:02:07.443Z,100570.00
2018-09-26T05:04:36.943Z,100576.00
2018-09-26T05:07:06.502Z,100579.00
2018-09-26T05:09:36.031Z,100586.00
2018-09-26T05:12:05.582Z,100587.00
2018-09-26T05:14:38.112Z,100592.00
2018-09-26T05:17:08.022Z,100592.00
2018-09-26T05:19:37.562Z,100595.00
2018-09-26T05:22:07.202Z,100594.00
2018-09-26T05:24:36.963Z,100593.00
2018-09-26T05:27:06.543Z,100572.00
2018-09-26T05:29:36.083Z,100572.00
2018-09-26T05:32:06.263Z,100576.00
2018-09-26T05:34:36.203Z,100578.00
2018-09-26T05:37:06.123Z,100573.00
2018-09-26T05:39:36.483Z,100562.00
2018-09-26T05:42:06.303Z,100558.00
2018-09-26T05:44:36.223Z,100559.00
2018-09-26T05:47:06.182Z,100563.00
2018-09-26T05:49:35.962Z,100555.00
2018-09-26T05:52:05.863Z,100553.00
2018-09-26T05:54:35.783Z,100556.00
2018-09-26T05:57:05.720Z,100549.00
2018-09-26T05:59:35.549Z,100542.00
2018-09-26T06:02:05.483Z,100542.00
2018-09-26T06:04:35.697Z,100526.00
2018-09-26T06:07:05.463Z,100520.00
2018-09-26T06:09:35.543Z,100514.00
2018-09-26T06:12:05.467Z,100526.00
2018-09-26T06:14:35.805Z,100527.00
2018-09-26T06:17:06.084Z,100518.00
2018-09-26T06:19:35.842Z,100517.00
2018-09-26T06:22:05.960Z,100512.00
2018-09-26T06:24:36.123Z,100529.00
2018-09-26T06:27:07.323Z,100526.00
2018-09-26T06:29:37.362Z,100520.00
2018-09-26T06:32:08.003Z,100529.00
2018-09-26T06:34:37.884Z,100527.00
2018-09-26T06:37:07.802Z,100521.00
2018-09-26T06:39:37.774Z,100532.00
2018-09-26T06:42:08.040Z,100533.00
2018-09-26T06:44:38.182Z,100535.00
2018-09-26T06:47:08.024Z,100534.00
2018-09-26T06:49:38.262Z,100535.00
2018-09-26T06:52:08.115Z,100539.00
2018-09-26T06:54:38.063Z,100524.00
2018-09-26T06:57:08.063Z,100526.00
2018-09-26T06:59:38.143Z,100526.00
2018-09-26T07:02:08.444Z,100523.00
2018-09-26T07:04:38.586Z,100527.00
2018-09-26T07:07:08.507Z,100523.00
2018-09-26T07:09:38.446Z,100527.00
2018-09-26T07:12:08.416Z,100516.00
2018-09-26T07:14:38.326Z,100514.00
2018-09-26T07:17:08.286Z,100516.00
2018-09-26T07:19:38.806Z,100513.00
2018-09-26T07:22:08.566Z,100520.00
2018-09-26T07:24:38.867Z,100512.00
2018-09-26T07:27:08.929Z,100517.00
2018-09-26T07:29:38.770Z,100506.00
2018-09-26T07:32:08.906Z,100509.00
2018-09-26T07:34:39.747Z,100508.00
2018-09-26T07:37:09.547Z,100505.00
2018-09-26T07:39:39.567Z,100496.00
2018-09-26T07:42:09.307Z,100497.00
2018-09-26T07:44:39.626Z,100503.00
2018-09-26T07:47:09.807Z,100506.00
2018-09-26T07:49:39.386Z,100507.00
2018-09-26T07:52:09.047Z,100511.00
2018-09-26T07:54:38.767Z,100519.00
2018-09-26T07:57:08.387Z,100535.00
2018-09-26T07:59:37.987Z,100525.00
2018-09-26T08:02:07.646Z,100530.00
2018-09-26T08:04:37.327Z,100536.00
2018-09-26T08:07:06.989Z,100529.00
2018-09-26T08:09:36.587Z,100528.00
2018-09-26T08:12:06.529Z,100523.00
2018-09-26T08:14:36.101Z,100526.00
2018-09-26T08:17:05.706Z,100518.00
2018-09-26T08:19:35.508Z,100526.00
2018-09-26T08:22:05.047Z,100521.00
2018-09-26T08:24:34.730Z,100529.00
2018-09-26T08:27:04.329Z,100526.00
2018-09-26T08:29:33.866Z,100525.00
2018-09-26T08:32:03.467Z,100516.00
2018-09-26T08:34:33.167Z,100511.00
2018-09-26T08:37:02.647Z,100508.00
2018-09-26T08:39:32.063Z,100500.00
2018-09-26T08:42:01.603Z,100508.00
2018-09-26T08:44:31.623Z,100496.00
2018-09-26T08:47:01.524Z,100510.00
2018-09-26T08:49:31.604Z,100501.00
2018-09-26T08:52:01.323Z,100506.00
2018-09-26T08:54:30.824Z,100501.00
2018-09-26T08:57:00.646Z,100509.00
2018-09-26T08:59:30.118Z,100510.00
2018-09-26T09:01:59.583Z,100514.00
2018-09-26T09:04:29.083Z,100514.00
2018-09-26T09:06:58.623Z,100503.00
2018-09-26T09:09:28.183Z,100519.00
2018-09-26T09:11:57.685Z,100507.00
2018-09-26T09:14:27.207Z,100500.00
2018-09-26T09:16:56.823Z,100498.00
2018-09-26T09:19:26.383Z,100500.00
2018-09-26T09:21:55.769Z,100493.00
2018-09-26T09:24:25.563Z,100487.00
2018-09-26T09:26:54.984Z,100487.00
2018-09-26T09:29:24.604Z,100476.00
2018-09-26T09:31:54.203Z,100476.00
2018-09-26T09:34:23.910Z,100453.00
2018-09-26T09:36:53.604Z,100450.00
2018-09-26T09:39:23.183Z,100450.00
2018-09-26T09:41:53.959Z,100456.00
2018-09-26T09:44:23.502Z,100453.00
2018-09-26T09:46:53.029Z,100453.00
2018-09-26T09:49:22.540Z,100450.00
2018-09-26T09:51:51.931Z,100452.00
2018-09-26T09:54:21.543Z,100445.00
2018-09-26T09:56:50.944Z,100443.00
2018-09-26T09:59:20.583Z,100449.00
2018-09-26T10:01:50.107Z,100451.00
2018-09-26T10:04:19.584Z,100441.00
2018-09-26T10:06:49.544Z,100443.00
2018-09-26T10:09:18.975Z,100437.00
2018-09-26T10:11:48.625Z,100439.00
2018-09-26T10:14:18.258Z,100433.00
2018-09-26T10:16:47.604Z,100431.00
2018-09-26T10:19:17.087Z,100426.00
2018-09-26T10:21:46.649Z,100429.00
2018-09-26T10:24:16.443Z,100429.00
2018-09-26T10:26:46.138Z,100422.00
2018-09-26T10:29:15.837Z,100418.00
2018-09-26T10:31:45.345Z,100412.00
2018-09-26T10:34:14.861Z,100416.00
2018-09-26T10:36:44.447Z,100405.00
2018-09-26T10:39:13.878Z,100405.00
2018-09-26T10:41:43.462Z,100401.00
2018-09-26T10:44:13.050Z,100406.00
2018-09-26T10:46:42.587Z,100406.00
2018-09-26T10:49:12.150Z,100406.00
2018-09-26T10:51:41.942Z,100403.00
2018-09-26T10:54:11.343Z,100401.00
2018-09-26T10:56:41.240Z,100390.00
2018-09-26T10:59:10.982Z,100393.00
2018-09-26T11:01:40.342Z,100380.00
2018-09-26T11:04:10.389Z,100363.00
2018-09-26T11:06:39.745Z,100362.00
2018-09-26T11:09:10.302Z,100365.00
2018-09-26T11:11:39.878Z,100358.00
2018-09-26T11:14:10.217Z,100363.00
2018-09-26T11:16:40.155Z,100356.00
2018-09-26T11:19:09.931Z,100354.00
2018-09-26T11:21:39.372Z,100352.00
2018-09-26T11:24:08.929Z,100353.00
2018-09-26T11:26:38.733Z,100349.00
2018-09-26T11:29:09.525Z,100355.00
2018-09-26T11:31:39.483Z,100353.00
2018-09-26T11:34:09.083Z,100342.00
2018-09-26T11:36:38.620Z,100331.00
2018-09-26T11:39:10.608Z,100322.00
2018-09-26T11:41:46.205Z,100323.00
2018-09-26T11:44:15.932Z,100311.00
2018-09-26T11:46:45.603Z,100309.00
2018-09-26T11:49:15.101Z,100292.00
2018-09-26T11:51:44.663Z,100297.00
2018-09-26T11:54:14.334Z,100292.00
2018-09-26T11:56:43.552Z,100288.00
2018-09-26T11:59:13.551Z,100283.00
2018-09-26T12:01:43.131Z,100282.00
2018-09-26T12:04:13.115Z,100284.00
2018-09-26T12:06:42.754Z,100272.00
2018-09-26T12:09:12.224Z,100278.00
2018-09-26T12:11:41.971Z,100266.00
2018-09-26T12:14:11.436Z,100270.00
2018-09-26T12:16:40.865Z,100274.00
2018-09-26T12:19:10.358Z,100267.00
2018-09-26T12:21:40.108Z,100269.00
2018-09-26T12:24:09.529Z,100266.00
2018-09-26T12:26:38.751Z,100265.00
2018-09-26T12:29:08.085Z,100259.00
2018-09-26T12:31:37.725Z,100261.00
2018-09-26T12:34:07.461Z,100251.00
2018-09-26T12:36:37.061Z,100255.00
2018-09-26T12:39:09.211Z,100255.00
2018-09-26T12:41:38.806Z,100259.00
2018-09-26T12:44:08.531Z,100263.00
2018-09-26T12:46:38.043Z,100258.00
2018-09-26T12:49:07.443Z,100252.00
2018-09-26T12:51:36.877Z,100252.00
2018-09-26T12:54:06.429Z,100258.00
2018-09-26T12:56:36.050Z,100261.00
2018-09-26T12:59:05.543Z,100250.00
2018-09-26T13:01:35.173Z,100249.00
2018-09-26T13:04:04.907Z,100242.00
2018-09-26T13:06:34.586Z,100237.00
2018-09-26T13:09:04.810Z,100244.00
2018-09-26T13:11:34.705Z,100233.00
2018-09-26T13:14:04.430Z,100233.00
2018-09-26T13:16:33.970Z,100218.00
2018-09-26T13:19:03.634Z,100211.00
2018-09-26T13:21:33.130Z,100210.00
2018-09-26T13:24:02.676Z,100202.00
2018-09-26T13:26:32.150Z,100200.00
2018-09-26T13:29:01.751Z,100193.00
2018-09-26T13:31:31.150Z,100184.00
2018-09-26T13:34:00.754Z,100186.00
2018-09-26T13:36:30.365Z,100184.00
2018-09-26T13:38:59.764Z,100181.00
2018-09-26T13:41:29.310Z,100176.00
2018-09-26T13:43:58.592Z,100176.00
2018-09-26T13:46:28.114Z,100176.00
2018-09-26T13:48:57.550Z,100168.00
2018-09-26T13:51:27.505Z,100165.00
2018-09-26T13:53:57.190Z,100172.00
2018-09-26T13:56:27.053Z,100172.00
2018-09-26T13:58:56.517Z,100162.00
2018-09-26T14:01:26.062Z,100169.00
2018-09-26T14:03:55.618Z,100164.00
2018-09-26T14:06:25.097Z,100160.00
2018-09-26T14:08:54.900Z,100156.00
2018-09-26T14:11:24.336Z,100150.00
2018-09-26T14:13:53.776Z,100147.00
2018-09-26T14:16:23.080Z,100144.00
2018-09-26T14:18:52.712Z,100146.00
2018-09-26T14:21:22.078Z,100142.00
2018-09-26T14:23:51.644Z,100139.00
2018-09-26T14:26:21.549Z,100130.00
2018-09-26T14:28:51.026Z,100138.00
2018-09-26T14:31:20.427Z,100136.00
2018-09-26T14:33:50.506Z,100136.00
2018-09-26T14:36:19.797Z,100136.00
2018-09-26T14:38:49.623Z,100134.00
2018-09-26T14:41:19.290Z,100142.00
2018-09-26T14:43:48.903Z,100134.00
2018-09-26T14:46:18.604Z,100135.00
2018-09-26T14:48:48.659Z,100128.00
2018-09-26T14:51:18.344Z,100133.00
2018-09-26T14:53:48.001Z,100133.00
2018-09-26T14:56:17.682Z,100136.00
2018-09-26T14:58:47.427Z,100132.00
2018-09-26T15:01:17.024Z,100132.00
2018-09-26T15:03:46.497Z,100132.00
2018-09-26T15:06:16.088Z,100134.00
2018-09-26T15:08:45.857Z,100122.00
2018-09-26T15:11:15.478Z,100132.00
2018-09-26T15:13:45.160Z,100128.00
2018-09-26T15:16:14.696Z,100122.00
2018-09-26T15:18:44.237Z,100127.00
2018-09-26T15:21:13.797Z,100125.00
2018-09-26T15:23:43.317Z,100126.00
2018-09-26T15:26:13.025Z,100117.00
2018-09-26T15:28:43.056Z,100126.00
2018-09-26T15:31:12.577Z,100126.00
2018-09-26T15:33:42.117Z,100110.00
2018-09-26T15:36:12.090Z,100109.00
2018-09-26T15:38:41.561Z,100109.00
2018-09-26T15:41:11.116Z,100112.00
2018-09-26T15:43:40.660Z,100113.00
2018-09-26T15:46:10.255Z,100113.00
2018-09-26T15:48:39.843Z,100117.00
2018-09-26T15:51:09.617Z,100121.00
2018-09-26T15:53:39.258Z,100126.00
2018-09-26T15:56:09.040Z,100117.00
2018-09-26T15:58:38.641Z,100122.00
2018-09-26T16:01:08.472Z,100119.00
2018-09-26T16:03:38.072Z,100114.00
2018-09-26T16:06:07.796Z,100121.00
2018-09-26T16:08:37.315Z,100123.00
2018-09-26T16:11:06.955Z,100112.00
2018-09-26T16:13:36.514Z,100117.00
2018-09-26T16:16:06.398Z,100122.00
2018-09-26T16:18:35.954Z,100113.00
2018-09-26T16:21:05.602Z,100122.00
2018-09-26T16:23:35.194Z,100122.00
2018-09-26T16:26:04.876Z,100122.00
2018-09-26T16:28:34.419Z,100114.00
2018-09-26T16:31:04.448Z,100113.00
2018-09-26T16:33:34.169Z,100110.00
2018-09-26T16:36:03.850Z,100114.00
2018-09-26T16:38:33.410Z,100121.00
2018-09-26T16:41:02.970Z,100116.00
2018-09-26T16:43:32.603Z,100119.00
2018-09-26T16:46:02.664Z,100117.00
2018-09-26T16:48:32.153Z,100127.00
2018-09-26T16:51:01.985Z,100123.00
2018-09-26T16:53:31.631Z,100132.00
2018-09-26T16:56:01.206Z,100130.00
2018-09-26T16:58:30.784Z,100131.00
2018-09-26T17:01:00.345Z,100129.00
2018-09-26T17:03:29.845Z,100132.00
2018-09-26T17:05:59.444Z,100137.00
2018-09-26T17:08:28.925Z,100138.00
2018-09-26T17:10:58.545Z,100132.00
2018-09-26T17:13:28.166Z,100139.00
2018-09-26T17:15:57.755Z,100136.00
2018-09-26T17:18:28.103Z,100130.00
2018-09-26T17:20:57.701Z,100134.00
2018-09-26T17:23:27.274Z,100134.00
2018-09-26T17:25:56.951Z,100142.00
2018-09-26T17:28:26.765Z,100143.00
2018-09-26T17:30:56.249Z,100140.00
2018-09-26T17:33:26.070Z,100140.00
2018-09-26T17:35:55.611Z,100146.00
2018-09-26T17:38:25.150Z,100153.00
2018-09-26T17:40:54.709Z,100153.00
2018-09-26T17:43:24.211Z,100152.00
2018-09-26T17:45:53.790Z,100146.00
2018-09-26T17:48:23.420Z,100151.00
2018-09-26T17:50:52.838Z,100155.00
2018-09-26T17:53:25.209Z,100160.00
2018-09-26T17:55:54.919Z,100155.00
2018-09-26T17:58:24.532Z,100161.00
2018-09-26T18:00:54.309Z,100165.00
2018-09-26T18:03:23.938Z,100162.00
2018-09-26T18:05:53.615Z,100159.00
2018-09-26T18:08:23.254Z,100162.00
2018-09-26T18:10:53.033Z,100169.00
2018-09-26T18:13:22.702Z,100172.00
2018-09-26T18:15:52.193Z,100175.00
2018-09-26T18:18:21.994Z,100177.00
2018-09-26T18:20:51.934Z,100173.00
2018-09-26T18:23:21.587Z,100154.00
2018-09-26T18:25:51.057Z,100158.00
2018-09-26T18:28:21.836Z,100167.00
2018-09-26T18:30:51.374Z,100170.00
2018-09-26T18:33:20.933Z,100180.00
2018-09-26T18:35:50.930Z,100171.00
2018-09-26T18:38:20.611Z,100183.00
2018-09-26T18:40:50.219Z,100178.00
2018-09-26T18:43:19.824Z,100189.00
2018-09-26T18:45:49.463Z,100187.00
2018-09-26T18:48:19.497Z,100186.00
2018-09-26T18:50:49.026Z,100204.00
2018-09-26T18:53:18.596Z,100197.00
2018-09-26T18:55:48.206Z,100198.00
2018-09-26T18:58:17.726Z,100211.00
2018-09-26T19:00:47.241Z,100215.00
2018-09-26T19:03:17.285Z,100214.00
2018-09-26T19:05:46.846Z,100221.00
2018-09-26T19:08:16.959Z,100224.00
2018-09-26T19:10:46.489Z,100225.00
2018-09-26T19:13:16.139Z,100224.00
2018-09-26T19:15:45.649Z,100217.00
2018-09-26T19:18:15.685Z,100216.00
2018-09-26T19:20:45.166Z,100223.00
2018-09-26T19:23:14.766Z,100220.00
2018-09-26T19:25:44.366Z,100217.00
2018-09-26T19:28:13.946Z,100218.00
2018-09-26T19:30:43.570Z,100220.00
2018-09-26T19:33:13.130Z,100220.00
2018-09-26T19:35:42.766Z,100221.00
2018-09-26T19:38:12.406Z,100216.00
2018-09-26T19:40:42.082Z,100228.00
2018-09-26T19:43:11.631Z,100227.00
2018-09-26T19:45:41.506Z,100230.00
2018-09-26T19:48:11.066Z,100222.00
2018-09-26T19:50:40.767Z,100222.00
2018-09-26T19:53:10.266Z,100227.00
2018-09-26T19:55:39.846Z,100227.00
2018-09-26T19:58:09.546Z,100224.00
2018-09-26T20:00:39.125Z,100233.00
2018-09-26T20:03:08.726Z,100230.00
2018-09-26T20:05:38.366Z,100232.00
2018-09-26T20:08:08.018Z,100226.00
2018-09-26T20:10:37.926Z,100229.00
2018-09-26T20:13:07.466Z,100225.00
2018-09-26T20:15:37.087Z,100227.00
2018-09-26T20:18:06.926Z,100230.00
2018-09-26T20:20:36.646Z,100230.00
2018-09-26T20:23:06.349Z,100225.00
2018-09-26T20:25:36.027Z,100238.00
2018-09-26T20:28:05.706Z,100234.00
2018-09-26T20:30:35.266Z,100238.00
2018-09-26T20:33:04.881Z,100242.00
2018-09-26T20:35:34.328Z,100239.00
2018-09-26T20:38:04.406Z,100230.00
2018-09-26T20:40:34.064Z,100235.00
2018-09-26T20:43:03.585Z,100236.00
2018-09-26T20:45:33.553Z,100238.00
2018-09-26T20:48:03.086Z,100235.00
2018-09-26T20:50:32.546Z,100234.00
2018-09-26T20:53:02.109Z,100240.00
2018-09-26T20:55:31.626Z,100252.00
2018-09-26T20:58:02.306Z,100252.00
2018-09-26T21:00:32.013Z,100250.00
2018-09-26T21:03:01.932Z,100237.00
2018-09-26T21:05:31.492Z,100236.00
2018-09-26T21:08:01.092Z,100239.00
2018-09-26T21:10:30.695Z,100236.00
2018-09-26T21:13:00.265Z,100244.00
2018-09-26T21:15:29.900Z,100232.00
2018-09-26T21:17:59.459Z,100228.00
2018-09-26T21:20:28.935Z,100233.00
2018-09-26T21:22:59.021Z,100245.00
2018-09-26T21:25:28.618Z,100255.00
2018-09-26T21:27:58.071Z,100259.00
2018-09-26T21:30:27.813Z,100249.00
2018-09-26T21:32:57.352Z,100241.00
2018-09-26T21:35:26.811Z,100255.00
2018-09-26T21:37:56.351Z,100253.00
2018-09-26T21:40:25.864Z,100252.00
2018-09-26T21:42:55.651Z,100254.00
2018-09-26T21:45:25.251Z,100254.00
2018-09-26T21:47:54.771Z,100250.00
2018-09-26T21:50:24.351Z,100248.00
2018-09-26T21:52:53.901Z,100244.00
2018-09-26T21:55:23.440Z,100245.00
2018-09-26T21:57:53.396Z,100252.00
2018-09-26T22:00:22.939Z,100250.00
2018-09-26T22:02:52.479Z,100247.00
2018-09-26T22:05:21.999Z,100246.00
2018-09-26T22:07:51.598Z,100244.00
2018-09-26T22:10:21.269Z,100249.00
2018-09-26T22:12:50.798Z,100242.00
2018-09-26T22:15:24.062Z,100246.00
2018-09-26T22:17:54.177Z,100236.00
2018-09-26T22:20:23.760Z,100238.00
2018-09-26T22:22:53.358Z,100243.00
2018-09-26T22:25:22.974Z,100243.00
2018-09-26T22:27:52.558Z,100239.00
2018-09-26T22:30:22.198Z,100235.00
2018-09-26T22:32:51.881Z,100244.00
2018-09-26T22:35:21.821Z,100241.00
2018-09-26T22:37:51.335Z,100234.00
2018-09-26T22:40:20.960Z,100240.00
2018-09-26T22:42:50.439Z,100244.00
2018-09-26T22:45:19.980Z,100240.00
2018-09-26T22:47:49.459Z,100244.00
2018-09-26T22:50:19.119Z,100240.00
2018-09-26T22:52:48.560Z,100235.00
2018-09-26T22:55:18.100Z,100234.00
2018-09-26T22:57:47.881Z,100236.00
2018-09-26T23:00:17.481Z,100234.00
2018-09-26T23:02:47.039Z,100231.00
2018-09-26T23:05:16.559Z,100233.00
2018-09-26T23:07:46.140Z,100235.00
2018-09-26T23:10:15.780Z,100229.00
2018-09-26T23:12:45.357Z,100235.00
2018-09-26T23:15:14.963Z,100230.00
2018-09-26T23:17:44.919Z,100229.00
2018-09-26T23:20:14.459Z,100242.00
2018-09-26T23:22:44.155Z,100235.00
2018-09-26T23:25:14.452Z,100235.00
2018-09-26T23:27:43.959Z,100234.00
2018-09-26T23:30:13.540Z,100234.00
2018-09-26T23:32:43.579Z,100233.00
2018-09-26T23:35:13.120Z,100234.00
2018-09-26T23:37:42.840Z,100234.00
2018-09-26T23:40:12.320Z,100231.00
2018-09-26T23:42:41.839Z,100225.00
2018-09-26T23:45:11.520Z,100222.00
2018-09-26T23:47:40.939Z,100229.00
2018-09-26T23:50:10.520Z,100229.00
2018-09-26T23:52:40.080Z,100239.00
2018-09-26T23:55:09.579Z,100235.00
2018-09-26T23:57:39.519Z,100235.00
